Time;durP1;ratioP1;P1;durP2;ratioP2;P2;SDS_P1;SDS_P2;PMS_P1;PMS_P2;Temp;Humidity;BMP_temperature;BMP_pressure;BME280_temperature;BME280_humidity;BME280_pressure;Samples;Min_cycle;Max_cycle;Signal;HPM_P1;HPM_P2
2022/01/29 00:00:04;;;;;;;68.00;30.77;;;;;;;;;;5054960;28;20123;-68
2022/01/29 00:02:30;;;;;;;69.53;34.22;;;;;;;;;;5071601;28;20139;-68
2022/01/29 00:04:56;;;;;;;74.20;34.38;;;;;;;;;;5071928;28;20137;-69
2022/01/29 00:07:22;;;;;;;77.18;34.17;;;;;;;;;;5071404;28;20400;-68
2022/01/29 00:09:48;;;;;;;70.90;34.03;;;;;;;;;;5055105;28;20044;-68
2022/01/29 00:12:14;;;;;;;70.60;34.42;;;;;;;;;;5055203;28;20042;-69
2022/01/29 00:14:40;;;;;;;76.07;35.92;;;;;;;;;;5072815;28;20483;-68
2022/01/29 00:17:06;;;;;;;72.85;34.88;;;;;;;;;;5072889;28;20052;-68
2022/01/29 00:19:32;;;;;;;72.88;35.05;;;;;;;;;;5071613;28;20048;-68
2022/01/29 00:22:00;;;;;;;81.45;37.22;;;;;;;;;;5071509;28;20047;-67
2022/01/29 00:24:26;;;;;;;76.75;35.42;;;;;;;;;;5073211;28;20052;-67
2022/01/29 00:26:53;;;;;;;80.68;36.30;;;;;;;;;;5072808;28;20076;-67
2022/01/29 00:29:21;;;;;;;77.03;35.72;;;;;;;;;;5071456;28;20045;-67
2022/01/29 00:31:47;;;;;;;70.53;35.03;;;;;;;;;;5071850;28;20410;-67
2022/01/29 00:34:13;;;;;;;77.18;36.25;;;;;;;;;;5071124;28;20131;-68
2022/01/29 00:36:39;;;;;;;76.15;37.85;;;;;;;;;;5071421;28;20052;-69
2022/01/29 00:39:06;;;;;;;79.60;38.20;;;;;;;;;;5054803;28;20109;-69
2022/01/29 00:41:32;;;;;;;77.65;37.00;;;;;;;;;;5072867;28;20044;-69
2022/01/29 00:43:58;;;;;;;85.18;37.25;;;;;;;;;;5075657;28;20040;-70
2022/01/29 00:46:24;;;;;;;75.45;36.13;;;;;;;;;;5075414;28;20071;-69
2022/01/29 00:48:50;;;;;;;76.45;35.53;;;;;;;;;;5076740;28;20036;-68
2022/01/29 00:51:16;;;;;;;70.25;34.25;;;;;;;;;;5075646;28;20048;-69
2022/01/29 00:53:42;;;;;;;78.50;37.15;;;;;;;;;;5058687;28;20488;-69
2022/01/29 00:56:10;;;;;;;72.60;36.53;;;;;;;;;;5076933;28;20094;-69
2022/01/29 00:58:36;;;;;;;74.65;37.45;;;;;;;;;;5076783;28;20488;-69
2022/01/29 01:01:02;;;;;;;83.38;37.42;;;;;;;;;;5075291;28;20102;-70
2022/01/29 01:03:28;;;;;;;84.35;37.10;;;;;;;;;;5075242;28;20045;-70
2022/01/29 01:05:54;;;;;;;80.43;38.45;;;;;;;;;;5076442;28;20124;-68
2022/01/29 01:08:20;;;;;;;79.18;38.17;;;;;;;;;;5075031;28;20471;-69
2022/01/29 01:10:46;;;;;;;89.35;39.10;;;;;;;;;;5075298;28;20041;-69
2022/01/29 01:13:12;;;;;;;89.35;38.53;;;;;;;;;;5075024;28;20046;-68
2022/01/29 01:15:38;;;;;;;81.30;36.60;;;;;;;;;;5058186;28;20177;-70
2022/01/29 01:18:04;;;;;;;90.07;40.13;;;;;;;;;;5076540;28;20115;-68
2022/01/29 01:20:30;;;;;;;85.85;39.03;;;;;;;;;;5075460;28;20059;-69
2022/01/29 01:22:56;;;;;;;82.53;37.63;;;;;;;;;;5076402;28;20111;-69
2022/01/29 01:25:22;;;;;;;95.20;41.45;;;;;;;;;;5058059;28;20051;-68
2022/01/29 01:27:48;;;;;;;91.38;39.58;;;;;;;;;;5074628;28;20076;-69
2022/01/29 01:30:14;;;;;;;91.63;38.28;;;;;;;;;;5075906;28;20044;-67
2022/01/29 01:32:40;;;;;;;80.63;37.08;;;;;;;;;;5074851;28;20161;-68
2022/01/29 01:35:13;;;;;;;98.75;38.80;;;;;;;;;;5076182;28;20463;-69
2022/01/29 01:37:47;;;;;;;90.15;41.00;;;;;;;;;;5074571;28;20048;-69
2022/01/29 01:40:14;;;;;;;94.90;40.08;;;;;;;;;;5074658;28;20060;-70
2022/01/29 01:42:40;;;;;;;94.13;40.58;;;;;;;;;;5057621;28;20056;-69
2022/01/29 01:45:07;;;;;;;101.53;42.33;;;;;;;;;;5074235;28;20048;-69
2022/01/29 01:47:33;;;;;;;90.90;38.67;;;;;;;;;;5075916;28;20044;-68
2022/01/29 01:49:58;;;;;;;90.88;40.33;;;;;;;;;;5074429;28;20408;-69
2022/01/29 01:52:25;;;;;;;93.93;39.95;;;;;;;;;;5057625;28;20048;-69
2022/01/29 01:54:51;;;;;;;84.47;36.75;;;;;;;;;;5075542;28;20037;-70
2022/01/29 01:57:17;;;;;;;91.43;39.88;;;;;;;;;;5074355;28;20044;-69
2022/01/29 01:59:44;;;;;;;102.30;40.10;;;;;;;;;;5075838;28;20502;-69
2022/01/29 02:02:10;;;;;;;88.95;38.10;;;;;;;;;;5073999;28;20048;-69
2022/01/29 02:04:36;;;;;;;98.30;40.35;;;;;;;;;;5057434;28;20087;-69
2022/01/29 02:07:02;;;;;;;95.97;37.28;;;;;;;;;;5075424;28;20040;-70
2022/01/29 02:09:30;;;;;;;94.22;38.92;;;;;;;;;;5074407;28;20075;-69
2022/01/29 02:11:57;;;;;;;89.68;37.92;;;;;;;;;;5073970;28;20106;-69
2022/01/29 02:14:27;;;;;;;77.20;32.38;;;;;;;;;;5074027;28;20045;-69
2022/01/29 02:16:54;;;;;;;84.35;34.20;;;;;;;;;;5057473;28;20131;-69
2022/01/29 02:19:20;;;;;;;76.50;31.13;;;;;;;;;;5073708;28;20507;-70
2022/01/29 02:21:46;;;;;;;79.25;33.03;;;;;;;;;;5057230;28;20074;-69
2022/01/29 02:24:12;;;;;;;81.97;34.22;;;;;;;;;;5074848;28;20076;-69
2022/01/29 02:26:38;;;;;;;81.00;31.73;;;;;;;;;;5073740;28;20060;-69
2022/01/29 02:29:04;;;;;;;79.32;32.92;;;;;;;;;;5074987;28;20470;-69
2022/01/29 02:31:30;;;;;;;77.38;32.38;;;;;;;;;;5073923;28;20071;-69
2022/01/29 02:33:56;;;;;;;78.65;33.47;;;;;;;;;;5074889;28;20048;-69
2022/01/29 02:36:22;;;;;;;80.13;32.83;;;;;;;;;;5074692;28;20052;-68
2022/01/29 02:38:48;;;;;;;75.32;32.45;;;;;;;;;;5073491;28;20407;-69
2022/01/29 02:41:15;;;;;;;76.15;32.50;;;;;;;;;;5056279;28;20113;-68
2022/01/29 02:43:47;;;;;;;76.18;32.13;;;;;;;;;;5073826;28;20109;-69
2022/01/29 02:48:43;;;;;;;71.95;31.63;;;;;;;;;;5074732;28;20071;-70
2022/01/29 02:51:09;;;;;;;73.70;31.02;;;;;;;;;;5073280;28;20052;-69
2022/01/29 02:53:35;;;;;;;74.35;31.05;;;;;;;;;;5056599;28;20033;-69
2022/01/29 02:56:01;;;;;;;73.75;29.42;;;;;;;;;;5074171;28;20510;-69
2022/01/29 02:58:27;;;;;;;73.72;30.63;;;;;;;;;;5074406;28;20040;-69
2022/01/29 03:00:53;;;;;;;73.95;29.30;;;;;;;;;;5077115;28;20056;-69
2022/01/29 03:03:19;;;;;;;76.65;29.92;;;;;;;;;;5076478;28;20086;-69
2022/01/29 03:05:45;;;;;;;85.13;30.83;;;;;;;;;;5093811;28;20474;-69
2022/01/29 03:08:11;;;;;;;74.50;29.25;;;;;;;;;;5076383;28;20078;-68
2022/01/29 03:10:37;;;;;;;72.03;30.98;;;;;;;;;;5094068;28;20490;-68
2022/01/29 03:13:03;;;;;;;73.47;29.40;;;;;;;;;;5094526;28;20040;-68
2022/01/29 03:15:29;;;;;;;77.78;30.45;;;;;;;;;;5059648;28;20059;-69
2022/01/29 03:17:55;;;;;;;76.40;30.42;;;;;;;;;;5059806;28;20052;-68
2022/01/29 03:20:21;;;;;;;71.68;29.75;;;;;;;;;;5059274;28;20146;-68
2022/01/29 03:22:47;;;;;;;75.60;30.88;;;;;;;;;;5076211;28;20515;-69
2022/01/29 03:25:13;;;;;;;68.22;26.88;;;;;;;;;;5075776;28;20126;-69
2022/01/29 03:27:39;;;;;;;80.55;31.58;;;;;;;;;;5076155;28;20044;-70
2022/01/29 03:30:08;;;;;;;;;;;;;;;;;;5076495;28;20051;-69
2022/01/29 03:32:34;;;;;;;80.45;30.67;;;;;;;;;;5093865;28;20074;-69
2022/01/29 03:35:00;;;;;;;77.40;28.65;;;;;;;;;;5094246;28;20051;-69
2022/01/29 03:37:26;;;;;;;71.50;28.15;;;;;;;;;;5075771;28;20131;-68
2022/01/29 03:39:57;;;;;;;78.18;30.20;;;;;;;;;;5075818;28;20079;-70
2022/01/29 03:42:23;;;;;;;72.38;27.75;;;;;;;;;;5075711;28;20054;-69
2022/01/29 03:44:49;;;;;;;76.35;29.45;;;;;;;;;;5058800;28;20048;-70
2022/01/29 03:47:15;;;;;;;82.43;29.55;;;;;;;;;;5058533;28;20402;-69
2022/01/29 03:49:41;;;;;;;84.25;31.50;;;;;;;;;;5059084;28;20044;-68
2022/01/29 03:52:07;;;;;;;78.20;29.17;;;;;;;;;;5058915;28;20051;-70
2022/01/29 03:57:10;;;;;;;76.05;28.10;;;;;;;;;;4248080;22;20059;-73
2022/01/29 03:59:36;;;;;;;81.03;32.03;;;;;;;;;;5070582;28;20064;-72
2022/01/29 04:02:02;;;;;;;81.88;29.50;;;;;;;;;;5094080;28;20082;-73
2022/01/29 04:04:28;;;;;;;80.47;28.77;;;;;;;;;;5071731;28;20474;-72
2022/01/29 04:06:59;;;;;;;81.80;30.08;;;;;;;;;;5060493;28;20040;-72
2022/01/29 04:09:25;;;;;;;83.38;30.00;;;;;;;;;;5056490;28;20479;-71
2022/01/29 04:11:51;;;;;;;81.60;30.80;;;;;;;;;;5074166;28;20048;-71
2022/01/29 04:14:19;;;;;;;88.63;31.83;;;;;;;;;;5087933;28;20066;-72
2022/01/29 04:16:45;;;;;;;87.43;31.67;;;;;;;;;;5072826;28;20060;-72
2022/01/29 04:19:12;;;;;;;83.90;31.38;;;;;;;;;;5073724;28;20040;-72
2022/01/29 04:21:38;;;;;;;80.53;31.55;;;;;;;;;;5074332;28;20041;-72
2022/01/29 04:24:05;;;;;;;81.10;30.27;;;;;;;;;;5055873;28;20449;-72
2022/01/29 04:26:34;;;;;;;83.68;31.35;;;;;;;;;;5055486;28;20087;-72
2022/01/29 04:29:02;;;;;;;87.18;31.08;;;;;;;;;;5073683;28;20105;-72
2022/01/29 04:31:36;;;;;;;83.50;30.42;;;;;;;;;;5087884;28;20055;-72
2022/01/29 04:34:03;;;;;;;88.45;32.05;;;;;;;;;;5070500;28;20487;-72
2022/01/29 04:36:28;;;;;;;81.85;33.05;;;;;;;;;;5074165;28;20064;-72
2022/01/29 04:38:54;;;;;;;78.15;28.63;;;;;;;;;;5073912;28;20041;-72
2022/01/29 04:41:21;;;;;;;78.38;30.33;;;;;;;;;;5074026;28;20045;-72
2022/01/29 04:43:48;;;;;;;94.65;31.95;;;;;;;;;;5074020;28;20056;-73
2022/01/29 04:46:14;;;;;;;81.22;31.23;;;;;;;;;;5072432;28;20374;-72
2022/01/29 04:48:40;;;;;;;89.25;33.42;;;;;;;;;;5074412;28;20045;-72
2022/01/29 04:51:06;;;;;;;84.85;29.95;;;;;;;;;;5073921;28;20036;-72
2022/01/29 04:53:32;;;;;;;77.47;28.75;;;;;;;;;;5072137;28;20045;-72
2022/01/29 04:55:58;;;;;;;85.32;32.60;;;;;;;;;;5071137;28;20064;-72
2022/01/29 04:58:24;;;;;;;86.38;30.95;;;;;;;;;;5053525;28;20045;-73
2022/01/29 05:00:50;;;;;;;74.65;29.45;;;;;;;;;;5035632;28;20072;-73
2022/01/29 05:03:16;;;;;;;87.35;29.52;;;;;;;;;;5054062;28;20076;-72
2022/01/29 05:05:43;;;;;;;80.57;30.77;;;;;;;;;;5048122;28;20390;-72
2022/01/29 05:08:11;;;;;;;77.05;28.73;;;;;;;;;;5052169;28;20503;-72
2022/01/29 05:10:37;;;;;;;68.95;26.23;;;;;;;;;;5054198;28;20095;-72
2022/01/29 05:13:10;;;;;;;71.80;28.65;;;;;;;;;;5053424;28;20471;-71
2022/01/29 05:26:57;;;;;;;58.55;25.98;;;;;;;;;;5053201;28;20053;-72
2022/01/29 05:29:26;;;;;;;51.83;22.90;;;;;;;;;;5057681;28;20040;-72
2022/01/29 05:31:52;;;;;;;;;;;;;;;;;;5056308;28;20507;-72
2022/01/29 05:34:19;;;;;;;54.08;23.92;;;;;;;;;;5056871;28;19929;-73
2022/01/29 05:36:45;;;;;;;53.15;22.85;;;;;;;;;;5057190;28;20084;-72
2022/01/29 05:39:11;;;;;;;53.03;23.83;;;;;;;;;;5056719;28;20052;-72
2022/01/29 05:41:37;;;;;;;52.08;23.90;;;;;;;;;;5038932;28;20045;-72
2022/01/29 05:44:03;;;;;;;51.30;23.10;;;;;;;;;;5057544;28;20048;-73
2022/01/29 05:46:29;;;;;;;48.90;22.92;;;;;;;;;;5056272;28;20458;-72
2022/01/29 05:48:55;;;;;;;48.83;21.15;;;;;;;;;;5039990;28;20056;-72
2022/01/29 05:51:21;;;;;;;54.95;23.55;;;;;;;;;;5056172;28;20498;-71
2022/01/29 05:53:48;;;;;;;50.72;21.95;;;;;;;;;;5040084;28;20094;-72
2022/01/29 05:56:14;;;;;;;47.50;21.58;;;;;;;;;;5063951;28;20383;-72
2022/01/29 05:58:39;;;;;;;51.35;21.40;;;;;;;;;;5076687;28;20109;-72
2022/01/29 06:01:06;;;;;;;45.22;20.70;;;;;;;;;;5076754;28;20048;-71
2022/01/29 06:03:32;;;;;;;54.20;22.50;;;;;;;;;;5076599;28;20052;-72
2022/01/29 06:05:58;;;;;;;47.42;22.05;;;;;;;;;;5076793;28;20041;-72
2022/01/29 06:08:24;;;;;;;50.63;22.38;;;;;;;;;;5058480;28;20041;-72
2022/01/29 06:10:50;;;;;;;51.97;22.02;;;;;;;;;;5076389;28;20052;-71
2022/01/29 06:13:17;;;;;;;46.83;21.73;;;;;;;;;;5076670;28;20386;-72
2022/01/29 06:15:45;;;;;;;54.88;22.83;;;;;;;;;;5076323;28;20048;-72
2022/01/29 06:18:13;;;;;;;45.33;21.90;;;;;;;;;;5058196;28;20052;-72
2022/01/29 06:20:40;;;;;;;49.17;22.13;;;;;;;;;;5076029;28;20044;-72
2022/01/29 06:23:06;;;;;;;48.95;21.50;;;;;;;;;;5076184;28;20048;-72
2022/01/29 06:25:32;;;;;;;50.10;23.05;;;;;;;;;;5041225;28;20087;-71
2022/01/29 06:27:58;;;;;;;43.65;19.17;;;;;;;;;;5041141;28;20131;-72
2022/01/29 06:30:24;;;;;;;48.85;22.13;;;;;;;;;;5075888;28;20443;-73
2022/01/29 06:32:51;;;;;;;46.75;21.30;;;;;;;;;;5057577;28;20059;-72
2022/01/29 06:35:17;;;;;;;45.53;22.30;;;;;;;;;;5057835;28;20090;-72
2022/01/29 06:37:43;;;;;;;43.30;20.13;;;;;;;;;;5057630;28;20137;-72
2022/01/29 06:40:09;;;;;;;38.88;19.77;;;;;;;;;;5074822;28;20045;-73
2022/01/29 06:42:36;;;;;;;44.33;20.60;;;;;;;;;;5075784;28;20087;-72
2022/01/29 06:45:02;;;;;;;38.45;20.30;;;;;;;;;;5075195;28;20375;-72
2022/01/29 06:47:28;;;;;;;43.08;20.13;;;;;;;;;;5057441;28;20374;-72
2022/01/29 06:49:54;;;;;;;40.95;19.38;;;;;;;;;;5057468;28;20483;-72
2022/01/29 06:52:20;;;;;;;39.72;19.65;;;;;;;;;;5057471;28;20040;-72
2022/01/29 06:54:46;;;;;;;39.85;20.00;;;;;;;;;;5040945;28;20056;-73
2022/01/29 06:57:12;;;;;;;41.28;18.60;;;;;;;;;;5056986;28;20060;-72
2022/01/29 06:59:38;;;;;;;41.25;20.52;;;;;;;;;;5075052;28;20049;-72
2022/01/29 07:02:04;;;;;;;40.47;19.60;;;;;;;;;;5057005;28;20056;-72
2022/01/29 07:04:30;;;;;;;38.78;18.92;;;;;;;;;;5075453;28;20395;-72
2022/01/29 07:06:56;;;;;;;38.10;19.33;;;;;;;;;;5056964;28;20463;-72
2022/01/29 07:09:22;;;;;;;41.08;18.27;;;;;;;;;;5074901;28;20038;-72
2022/01/29 07:11:54;;;;;;;34.17;18.90;;;;;;;;;;5075309;28;20118;-72
2022/01/29 07:14:20;;;;;;;35.35;18.48;;;;;;;;;;5056700;28;20041;-72
2022/01/29 07:16:46;;;;;;;36.28;18.75;;;;;;;;;;5075345;28;20135;-72
2022/01/29 07:19:12;;;;;;;44.83;19.10;;;;;;;;;;5075069;28;20143;-72
2022/01/29 07:21:38;;;;;;;38.20;17.88;;;;;;;;;;5056934;28;20502;-72
2022/01/29 07:24:05;;;;;;;31.17;16.65;;;;;;;;;;5075213;28;20094;-72
2022/01/29 07:26:31;;;;;;;51.58;19.60;;;;;;;;;;5056673;28;20041;-72
2022/01/29 07:28:57;;;;;;;42.40;17.67;;;;;;;;;;5074510;28;20069;-72
2022/01/29 07:31:23;;;;;;;34.88;17.30;;;;;;;;;;5074638;28;20052;-72
2022/01/29 07:33:49;;;;;;;41.45;18.27;;;;;;;;;;5074723;28;20048;-73
2022/01/29 07:36:15;;;;;;;34.22;15.73;;;;;;;;;;5074844;28;20055;-73
2022/01/29 07:38:41;;;;;;;33.15;15.52;;;;;;;;;;5074705;28;20040;-72
2022/01/29 07:41:07;;;;;;;28.05;14.23;;;;;;;;;;5074293;28;20467;-71
2022/01/29 07:43:33;;;;;;;36.17;16.63;;;;;;;;;;5056034;28;20050;-72
2022/01/29 07:46:00;;;;;;;33.83;15.93;;;;;;;;;;5056051;28;20114;-72
2022/01/29 07:48:25;;;;;;;32.72;16.63;;;;;;;;;;5074391;28;20120;-72
2022/01/29 07:50:52;;;;;;;34.38;17.08;;;;;;;;;;5055707;28;20128;-72
2022/01/29 07:53:17;;;;;;;41.88;16.77;;;;;;;;;;5056080;28;20470;-73
2022/01/29 07:55:43;;;;;;;36.08;16.17;;;;;;;;;;5055506;28;20128;-72
2022/01/29 07:58:10;;;;;;;35.17;16.45;;;;;;;;;;5074078;28;20437;-73
2022/01/29 08:00:36;;;;;;;36.45;16.92;;;;;;;;;;5074703;28;20072;-73
2022/01/29 08:03:02;;;;;;;35.88;17.55;;;;;;;;;;5074150;28;20577;-73
2022/01/29 08:05:28;;;;;;;38.53;17.63;;;;;;;;;;5074152;28;20080;-73
2022/01/29 08:07:54;;;;;;;30.90;15.85;;;;;;;;;;5073847;28;20044;-72
2022/01/29 08:10:20;;;;;;;33.53;17.08;;;;;;;;;;5073922;28;20147;-72
2022/01/29 08:12:46;;;;;;;36.53;17.30;;;;;;;;;;5074175;28;20063;-72
2022/01/29 08:15:12;;;;;;;35.00;17.05;;;;;;;;;;5074231;28;20040;-72
2022/01/29 08:17:38;;;;;;;38.95;17.33;;;;;;;;;;5039641;28;20131;-71
2022/01/29 08:20:04;;;;;;;38.15;17.75;;;;;;;;;;5073868;28;20544;-72
2022/01/29 08:22:30;;;;;;;34.53;16.90;;;;;;;;;;5073958;28;20040;-72
2022/01/29 08:24:57;;;;;;;34.67;17.73;;;;;;;;;;5073738;28;20045;-73
2022/01/29 08:27:23;;;;;;;29.88;14.63;;;;;;;;;;5074095;28;20100;-72
2022/01/29 08:29:49;;;;;;;41.15;16.10;;;;;;;;;;5074099;28;20072;-72
2022/01/29 08:32:15;;;;;;;33.40;16.50;;;;;;;;;;5057880;28;20389;-73
2022/01/29 08:34:43;;;;;;;30.10;15.55;;;;;;;;;;5057973;28;20093;-73
2022/01/29 08:37:10;;;;;;;29.27;13.13;;;;;;;;;;5074044;28;20141;-72
2022/01/29 08:39:36;;;;;;;36.08;16.65;;;;;;;;;;5074242;28;20048;-73
2022/01/29 08:42:02;;;;;;;32.72;14.75;;;;;;;;;;5073731;28;20120;-72
2022/01/29 08:44:28;;;;;;;35.25;16.15;;;;;;;;;;5073859;28;20115;-72
2022/01/29 08:46:54;;;;;;;32.38;14.90;;;;;;;;;;5073836;28;20649;-72
2022/01/29 08:49:21;;;;;;;32.95;14.18;;;;;;;;;;5073840;28;20119;-72
2022/01/29 08:51:47;;;;;;;24.98;13.45;;;;;;;;;;5073812;28;20072;-72
2022/01/29 08:54:13;;;;;;;25.33;12.60;;;;;;;;;;5055949;28;20044;-72
2022/01/29 08:56:39;;;;;;;32.60;13.32;;;;;;;;;;5073253;28;20053;-72
2022/01/29 08:59:05;;;;;;;33.28;14.85;;;;;;;;;;5056234;28;20101;-72
2022/01/29 09:01:31;;;;;;;32.80;13.82;;;;;;;;;;5074431;28;20045;-72
2022/01/29 09:03:57;;;;;;;28.92;12.90;;;;;;;;;;5077490;28;20051;-72
2022/01/29 09:06:23;;;;;;;26.75;12.43;;;;;;;;;;5077835;28;20044;-72
2022/01/29 09:08:51;;;;;;;24.55;11.65;;;;;;;;;;5077916;28;20040;-72
2022/01/29 09:11:17;;;;;;;31.33;13.45;;;;;;;;;;5059529;28;20049;-72
2022/01/29 09:13:43;;;;;;;34.17;13.38;;;;;;;;;;5077781;28;20041;-72
2022/01/29 09:16:10;;;;;;;29.42;12.18;;;;;;;;;;5077797;28;20048;-72
2022/01/29 09:18:36;;;;;;;22.85;11.20;;;;;;;;;;5077936;28;20379;-72
2022/01/29 09:21:02;;;;;;;24.20;11.00;;;;;;;;;;5077897;28;20477;-72
2022/01/29 09:23:28;;;;;;;23.40;10.80;;;;;;;;;;5059895;28;20106;-71
2022/01/29 09:25:55;;;;;;;31.58;12.38;;;;;;;;;;5059706;28;20048;-71
2022/01/29 09:28:22;;;;;;;17.23;9.40;;;;;;;;;;5059650;28;20048;-71
2022/01/29 09:30:49;;;;;;;20.15;9.35;;;;;;;;;;5078166;28;20101;-71
2022/01/29 09:33:16;;;;;;;22.42;9.70;;;;;;;;;;5078096;28;20045;-71
2022/01/29 09:35:42;;;;;;;17.90;10.10;;;;;;;;;;5077824;28;20041;-72
2022/01/29 09:38:09;;;;;;;18.02;9.13;;;;;;;;;;5077382;28;20048;-71
2022/01/29 09:40:36;;;;;;;15.32;8.90;;;;;;;;;;5077681;28;20474;-72
2022/01/29 09:43:05;;;;;;;14.85;8.48;;;;;;;;;;5042836;28;20051;-71
2022/01/29 09:45:31;;;;;;;23.00;8.98;;;;;;;;;;5077383;28;20044;-71
2022/01/29 09:48:03;;;;;;;19.30;9.38;;;;;;;;;;5077807;28;20433;-72
2022/01/29 09:50:31;;;;;;;23.90;10.00;;;;;;;;;;5059548;28;20108;-74
2022/01/29 09:52:57;;;;;;;22.38;10.23;;;;;;;;;;5079258;28;20048;-72
2022/01/29 09:55:24;;;;;;;17.65;9.30;;;;;;;;;;5077373;28;20410;-73
2022/01/29 09:57:50;;;;;;;21.75;9.48;;;;;;;;;;5077797;28;20049;-72
2022/01/29 10:00:16;;;;;;;19.13;8.80;;;;;;;;;;5077816;28;20040;-72
2022/01/29 10:02:42;;;;;;;18.73;9.38;;;;;;;;;;5077558;28;20051;-73
2022/01/29 10:05:11;;;;;;;15.88;8.60;;;;;;;;;;5077272;28;20036;-72
2022/01/29 10:07:37;;;;;;;22.08;9.90;;;;;;;;;;5077023;28;20219;-72
2022/01/29 10:10:16;;;;;;;15.32;8.93;;;;;;;;;;5059124;28;20041;-72
2022/01/29 10:12:42;;;;;;;17.38;8.65;;;;;;;;;;5077297;28;20048;-72
2022/01/29 10:15:08;;;;;;;17.95;8.65;;;;;;;;;;5042402;28;20368;-71
2022/01/29 10:17:37;;;;;;;29.75;10.00;;;;;;;;;;5077719;28;20127;-72
2022/01/29 10:20:14;;;;;;;30.38;10.68;;;;;;;;;;5077435;28;20387;-72
2022/01/29 10:22:40;;;;;;;12.05;7.30;;;;;;;;;;5042989;28;20077;-72
2022/01/29 10:25:16;;;;;;;15.15;7.22;;;;;;;;;;5059090;28;20044;-71
2022/01/29 10:28:01;;;;;;;12.35;7.22;;;;;;;;;;5058901;28;20091;-72
2022/01/29 10:30:30;;;;;;;14.25;8.13;;;;;;;;;;5077796;28;20077;-71
2022/01/29 10:32:56;;;;;;;;;;;;;;;;;;5077466;28;20049;-72
2022/01/29 10:35:35;;;;;;;13.85;7.28;;;;;;;;;;5076623;28;19935;-73
2022/01/29 10:38:01;;;;;;;16.45;7.60;;;;;;;;;;5058947;28;20059;-72
2022/01/29 10:40:34;;;;;;;12.05;7.10;;;;;;;;;;5076747;28;20052;-72
2022/01/29 10:43:04;;;;;;;14.48;7.72;;;;;;;;;;5076634;28;20560;-74
2022/01/29 10:45:34;;;;;;;12.07;6.97;;;;;;;;;;5076532;28;20041;-71
2022/01/29 10:48:00;;;;;;;18.00;8.00;;;;;;;;;;5076599;28;20051;-73
2022/01/29 10:50:27;;;;;;;14.15;7.03;;;;;;;;;;5076494;28;20075;-73
2022/01/29 10:52:53;;;;;;;14.98;6.63;;;;;;;;;;5058039;28;20109;-72
2022/01/29 10:55:19;;;;;;;19.92;8.07;;;;;;;;;;5076464;28;20048;-73
2022/01/29 10:57:48;;;;;;;17.08;7.20;;;;;;;;;;5058002;28;20471;-73
2022/01/29 11:00:26;;;;;;;12.70;7.07;;;;;;;;;;5076023;28;20118;-73
2022/01/29 11:02:53;;;;;;;11.15;6.63;;;;;;;;;;5076434;28;20048;-73
2022/01/29 11:05:22;;;;;;;9.57;6.00;;;;;;;;;;5075932;28;20056;-73
2022/01/29 11:07:51;;;;;;;41.83;12.10;;;;;;;;;;5076570;28;20123;-72
2022/01/29 11:10:18;;;;;;;35.00;10.27;;;;;;;;;;5076785;28;20414;-72
2022/01/29 11:12:45;;;;;;;13.65;6.05;;;;;;;;;;5076988;28;20363;-72
2022/01/29 11:15:12;;;;;;;48.95;13.02;;;;;;;;;;5059251;28;20036;-73
2022/01/29 11:17:38;;;;;;;15.63;6.05;;;;;;;;;;5059951;28;20112;-72
2022/01/29 11:20:05;;;;;;;15.43;5.38;;;;;;;;;;5059312;28;20045;-72
2022/01/29 11:22:32;;;;;;;12.98;5.60;;;;;;;;;;5059257;28;20049;-72
2022/01/29 11:25:08;;;;;;;19.52;7.75;;;;;;;;;;5075112;28;20513;-72
2022/01/29 11:27:37;;;;;;;10.63;4.93;;;;;;;;;;5075449;28;20037;-72
2022/01/29 11:30:03;;;;;;;;;;;;;;;;;;5076087;28;20059;-72
2022/01/29 11:32:32;;;;;;;11.43;4.85;;;;;;;;;;5074987;28;19920;-71
2022/01/29 11:35:16;;;;;;;20.40;5.68;;;;;;;;;;5074787;28;20506;-72
2022/01/29 11:37:45;;;;;;;11.10;4.07;;;;;;;;;;5075747;28;20059;-72
2022/01/29 11:40:11;;;;;;;;;;;;;;;;;;5076721;28;20055;-72
2022/01/29 11:42:37;;;;;;;8.18;3.40;;;;;;;;;;5076096;28;19920;-71
2022/01/29 11:45:33;;;;;;;7.82;3.63;;;;;;;;;;5077366;28;20098;-70
2022/01/29 11:47:59;;;;;;;9.52;3.72;;;;;;;;;;5076026;28;20052;-71
2022/01/29 11:50:27;;;;;;;6.22;2.72;;;;;;;;;;5075533;28;20076;-71
2022/01/29 11:52:54;;;;;;;11.05;3.08;;;;;;;;;;5075288;28;20042;-72
2022/01/29 11:55:34;;;;;;;6.95;2.88;;;;;;;;;;5057310;28;20047;-71
2022/01/29 11:58:17;;;;;;;5.03;3.45;;;;;;;;;;5077615;28;20457;-71
2022/01/29 12:00:45;;;;;;;7.70;3.00;;;;;;;;;;5077640;28;20052;-72
2022/01/29 12:03:30;;;;;;;9.90;3.28;;;;;;;;;;5076952;28;20123;-71
2022/01/29 12:06:12;;;;;;;8.23;2.70;;;;;;;;;;5076737;28;20047;-72
2022/01/29 12:08:56;;;;;;;7.82;2.78;;;;;;;;;;5077470;28;20052;-71
2022/01/29 12:11:23;;;;;;;8.30;2.55;;;;;;;;;;5076016;28;20040;-72
2022/01/29 12:14:08;;;;;;;7.07;2.95;;;;;;;;;;5059782;28;20053;-71
2022/01/29 12:16:57;;;;;;;9.45;2.50;;;;;;;;;;5075305;28;20040;-71
2022/01/29 12:19:42;;;;;;;6.57;1.92;;;;;;;;;;5074996;28;20048;-73
2022/01/29 12:22:12;;;;;;;9.25;2.40;;;;;;;;;;5075714;28;20190;-72
2022/01/29 12:24:38;;;;;;;8.80;3.22;;;;;;;;;;5075128;28;20086;-72
2022/01/29 12:27:05;;;;;;;7.20;2.40;;;;;;;;;;5074995;28;20048;-72
2022/01/29 12:29:31;;;;;;;8.93;2.40;;;;;;;;;;5079873;28;20119;-71
2022/01/29 12:31:57;;;;;;;10.07;3.10;;;;;;;;;;5079527;28;20044;-71
2022/01/29 12:34:25;;;;;;;7.70;2.53;;;;;;;;;;5060154;28;20119;-72
2022/01/29 12:36:51;;;;;;;9.95;2.67;;;;;;;;;;5076110;28;20044;-73
2022/01/29 12:39:23;;;;;;;12.18;2.58;;;;;;;;;;5080069;28;20037;-72
2022/01/29 12:42:06;;;;;;;5.68;2.35;;;;;;;;;;5062576;28;20215;-72
2022/01/29 12:44:32;;;;;;;6.30;2.22;;;;;;;;;;5062586;28;20131;-71
2022/01/29 12:46:58;;;;;;;8.95;2.38;;;;;;;;;;5080311;28;20095;-70
2022/01/29 12:49:24;;;;;;;8.50;2.78;;;;;;;;;;5061446;28;20507;-72
2022/01/29 12:51:51;;;;;;;16.48;4.45;;;;;;;;;;5079928;28;20425;-72
2022/01/29 12:54:17;;;;;;;6.63;2.25;;;;;;;;;;5079952;28;20068;-71
2022/01/29 12:56:43;;;;;;;11.45;3.45;;;;;;;;;;5080065;28;20098;-72
2022/01/29 12:59:11;;;;;;;7.82;2.60;;;;;;;;;;5079327;28;20044;-71
2022/01/29 13:01:38;;;;;;;9.13;2.63;;;;;;;;;;5081730;28;20048;-71
2022/01/29 13:04:05;;;;;;;7.15;2.20;;;;;;;;;;5078228;28;20045;-71
2022/01/29 13:06:31;;;;;;;8.38;3.25;;;;;;;;;;5080054;28;20641;-70
2022/01/29 13:09:16;;;;;;;10.38;3.25;;;;;;;;;;5084222;28;20047;-71
2022/01/29 13:11:42;;;;;;;11.98;2.83;;;;;;;;;;5070091;28;20052;-73
2022/01/29 13:14:16;;;;;;;8.13;2.70;;;;;;;;;;5075859;28;20044;-71
2022/01/29 13:16:42;;;;;;;9.38;2.60;;;;;;;;;;5089518;28;20525;-71
2022/01/29 13:19:08;;;;;;;11.65;2.40;;;;;;;;;;5071650;28;20075;-71
2022/01/29 13:21:34;;;;;;;11.52;3.47;;;;;;;;;;5090308;28;20071;-70
2022/01/29 13:24:00;;;;;;;13.38;3.10;;;;;;;;;;5072950;28;20049;-70
2022/01/29 13:26:30;;;;;;;10.75;3.00;;;;;;;;;;5088786;28;20469;-70
2022/01/29 13:29:05;;;;;;;14.95;3.38;;;;;;;;;;5089567;28;20051;-71
2022/01/29 13:31:45;;;;;;;9.85;3.35;;;;;;;;;;5091359;28;20040;-70
2022/01/29 13:34:24;;;;;;;6.60;2.70;;;;;;;;;;5072521;28;20040;-72
2022/01/29 13:36:51;;;;;;;12.13;3.30;;;;;;;;;;5071619;28;20462;-71
2022/01/29 13:39:18;;;;;;;9.82;2.72;;;;;;;;;;5086684;28;20072;-72
2022/01/29 13:41:44;;;;;;;9.13;3.47;;;;;;;;;;5082992;28;20056;-71
2022/01/29 13:44:11;;;;;;;11.00;2.83;;;;;;;;;;5077775;28;20051;-71
2022/01/29 13:46:38;;;;;;;11.55;2.95;;;;;;;;;;5077741;28;20043;-71
2022/01/29 13:49:06;;;;;;;10.52;2.72;;;;;;;;;;5077081;28;20120;-72
2022/01/29 13:51:40;;;;;;;10.50;2.70;;;;;;;;;;5078028;28;20051;-72
2022/01/29 13:54:07;;;;;;;10.68;2.40;;;;;;;;;;5077478;28;20102;-73
2022/01/29 13:56:35;;;;;;;15.00;2.65;;;;;;;;;;5077340;28;20058;-73
2022/01/29 13:59:03;;;;;;;10.13;2.60;;;;;;;;;;5077011;28;20040;-73
2022/01/29 14:01:42;;;;;;;10.85;2.92;;;;;;;;;;5077696;28;20044;-72
2022/01/29 14:04:09;;;;;;;8.02;1.90;;;;;;;;;;5060284;28;20041;-71
2022/01/29 14:06:39;;;;;;;11.70;2.85;;;;;;;;;;5060561;28;20049;-72
2022/01/29 14:09:15;;;;;;;10.30;2.30;;;;;;;;;;5078297;28;20076;-72
2022/01/29 14:11:51;;;;;;;9.80;2.10;;;;;;;;;;5077047;28;20414;-70
2022/01/29 14:14:17;;;;;;;12.20;1.95;;;;;;;;;;5080055;28;20032;-71
2022/01/29 14:16:43;;;;;;;7.65;1.98;;;;;;;;;;5081070;28;20055;-72
2022/01/29 14:19:16;;;;;;;9.70;2.15;;;;;;;;;;5082175;28;20426;-72
2022/01/29 14:21:42;;;;;;;8.73;2.50;;;;;;;;;;5082518;28;20122;-69
2022/01/29 14:24:09;;;;;;;7.63;2.50;;;;;;;;;;5081230;28;20048;-69
2022/01/29 14:26:35;;;;;;;11.93;2.60;;;;;;;;;;5083753;28;20045;-71
2022/01/29 14:29:01;;;;;;;8.85;2.28;;;;;;;;;;5083825;28;20529;-69
2022/01/29 14:31:27;;;;;;;9.75;2.30;;;;;;;;;;5082686;28;20041;-70
2022/01/29 14:33:53;;;;;;;10.23;1.48;;;;;;;;;;5051919;28;20128;-71
2022/01/29 14:36:19;;;;;;;11.65;2.78;;;;;;;;;;5068711;28;20049;-70
2022/01/29 14:38:45;;;;;;;8.30;1.90;;;;;;;;;;5077199;28;20372;-72
2022/01/29 14:41:11;;;;;;;11.65;2.80;;;;;;;;;;5057633;28;20040;-71